Skip to content
Christman Field Latest Observations
Select Units
Date Time
MST
Temp
°F
RH
%
DewPt
°F
Wind
mph
Dir
°
Gust
mph
Dir
°
Press
in Hg
Solar
W/m^2
Prec
in
2022-09-30 16:05 56.1 79.3 49.8 7.2 279 13.9 299 24.907 14.1 0.00
2022-09-30 16:00 56.4 78.8 49.8 7.7 330 15.8 287 24.910 12.6 0.01
2022-09-30 15:55 56.9 75.8 49.3 8.3 307 11.5 314 24.911 11.4 0.00
2022-09-30 15:50 57.5 73.1 48.9 6.4 306 10.9 269 24.913 12.0 0.01
2022-09-30 15:45 57.9 72.3 49.0 10.5 280 15.0 244 24.913 13.0 0.00
2022-09-30 15:40 57.9 68.4 47.6 12.4 286 18.5 265 24.913 13.5 0.01
2022-09-30 15:35 57.8 69.6 48.0 12.3 257 15.7 259 24.915 12.6 0.00
2022-09-30 15:30 58.1 69.0 48.0 11.0 248 16.1 257 24.922 10.6 0.00
2022-09-30 15:25 58.5 77.4 51.5 5.5 240 8.4 295 24.921 7.2 0.01
2022-09-30 15:20 60.2 71.6 51.0 9.6 301 12.9 299 24.918 7.2 0.00
2022-09-30 15:15 62.2 63.8 49.8 13.6 300 17.8 324 24.910 9.6 0.00
2022-09-30 15:10 63.8 55.3 47.5 12.8 315 17.5 313 24.901 13.6 0.00
2022-09-30 15:05 64.7 51.2 46.3 10.0 340 14.9 325 24.890 19.8 0.00
2022-09-30 15:00 65.5 48.4 45.6 15.4 325 21.0 317 24.881 31.2 0.00
2022-09-30 14:55 65.8 41.6 41.8 18.7 311 25.3 321 24.874 58.3 0.00
2022-09-30 14:50 66.0 43.4 43.2 19.0 328 22.5 310 24.871 89.8 0.00
2022-09-30 14:45 66.2 44.3 43.9 19.6 319 24.7 309 24.867 116.8 0.00
2022-09-30 14:40 66.6 45.1 44.7 20.0 332 26.4 317 24.867 110.0 0.00
2022-09-30 14:35 68.4 46.3 47.0 20.2 328 26.3 332 24.865 94.2 0.00
2022-09-30 14:30 70.6 43.2 47.1 12.5 301 18.5 327 24.861 187.6 0.00
2022-09-30 14:25 70.3 43.9 47.3 13.2 305 16.3 320 24.863 368.9 0.00
2022-09-30 14:20 70.6 44.2 47.8 11.6 316 18.6 317 24.861 225.2 0.00
2022-09-30 14:15 70.4 39.6 44.7 7.6 321 11.0 309 24.858 252.8 0.00
2022-09-30 14:10 70.6 43.0 47.0 6.6 333 9.4 335 24.858 329.0 0.00
2022-09-30 14:05 70.6 43.5 47.3 4.9 291 7.0 274 24.856 403.0 0.00
2022-09-30 14:00 70.4 39.5 44.6 5.5 343 7.1 299 24.859 564.9 0.00
2022-09-30 13:55 70.4 45.1 48.1 6.2 276 8.5 273 24.860 557.3 0.00
2022-09-30 13:50 69.4 46.8 48.3 6.7 241 8.9 239 24.857 654.1 0.00
2022-09-30 13:45 68.3 55.0 51.5 8.4 239 10.3 252 24.856 685.3 0.00
2022-09-30 13:40 67.1 52.9 49.3 7.0 261 10.0 235 24.859 705.3 0.00
Date Time
MST
Temp
°C
RH
%
DewPt
°C
Wind
m/s
Dir
°
Gust
m/s
Dir
°
Press
hPa
Solar
W/m^2
Prec
mm
2022-09-30 16:05 13.4 79.3 9.9 3.2 279 6.2 299 843.46 14.1 0.00
2022-09-30 16:00 13.5 78.8 9.9 3.4 330 7.1 287 843.56 12.6 0.25
2022-09-30 15:55 13.8 75.8 9.6 3.7 307 5.1 314 843.57 11.4 0.00
2022-09-30 15:50 14.2 73.1 9.4 2.9 306 4.9 269 843.66 12.0 0.25
2022-09-30 15:45 14.4 72.3 9.5 4.7 280 6.7 244 843.64 13.0 0.00
2022-09-30 15:40 14.4 68.4 8.7 5.6 286 8.2 265 843.64 13.5 0.25
2022-09-30 15:35 14.4 69.6 8.9 5.5 257 7.0 259 843.70 12.6 0.00
2022-09-30 15:30 14.5 69.0 8.9 4.9 248 7.2 257 843.96 10.6 0.00
2022-09-30 15:25 14.8 77.4 10.8 2.5 240 3.7 295 843.91 7.2 0.25
2022-09-30 15:20 15.7 71.6 10.6 4.3 301 5.8 299 843.80 7.2 0.00
2022-09-30 15:15 16.8 63.8 9.9 6.1 300 8.0 324 843.56 9.6 0.00
2022-09-30 15:10 17.7 55.3 8.6 5.7 315 7.8 313 843.24 13.6 0.00
2022-09-30 15:05 18.2 51.2 8.0 4.5 340 6.6 325 842.87 19.8 0.00
2022-09-30 15:00 18.6 48.4 7.5 6.9 325 9.4 317 842.58 31.2 0.00
2022-09-30 14:55 18.8 41.6 5.5 8.4 311 11.3 321 842.34 58.3 0.00
2022-09-30 14:50 18.9 43.4 6.2 8.5 328 10.1 310 842.22 89.8 0.00
2022-09-30 14:45 19.0 44.3 6.6 8.8 319 11.1 309 842.11 116.8 0.00
2022-09-30 14:40 19.2 45.1 7.0 8.9 332 11.8 317 842.10 110.0 0.00
2022-09-30 14:35 20.2 46.3 8.3 9.0 328 11.8 332 842.04 94.2 0.00
2022-09-30 14:30 21.4 43.2 8.4 5.6 301 8.3 327 841.89 187.6 0.00
2022-09-30 14:25 21.3 43.9 8.5 5.9 305 7.3 320 841.95 368.9 0.00
2022-09-30 14:20 21.4 44.2 8.8 5.2 316 8.3 317 841.88 225.2 0.00
2022-09-30 14:15 21.4 39.6 7.1 3.4 321 4.9 309 841.80 252.8 0.00
2022-09-30 14:10 21.4 43.0 8.3 3.0 333 4.2 335 841.78 329.0 0.00
2022-09-30 14:05 21.4 43.5 8.5 2.2 291 3.1 274 841.73 403.0 0.00
2022-09-30 14:00 21.3 39.5 7.0 2.5 343 3.2 299 841.82 564.9 0.00
2022-09-30 13:55 21.3 45.1 8.9 2.8 276 3.8 273 841.85 557.3 0.00
2022-09-30 13:50 20.8 46.8 9.0 3.0 241 4.0 239 841.76 654.1 0.00
2022-09-30 13:45 20.1 55.0 10.8 3.8 239 4.6 252 841.73 685.3 0.00
2022-09-30 13:40 19.5 52.9 9.6 3.1 261 4.4 235 841.83 705.3 0.00
CIRA

Cooperative Institute for Research in the Atmosphere

Current Events

RAMMB SLIDER

RAMMB SLIDER
Colorado State University Ram Logo

Our Mission

The Cooperative Institute for Research in the Atmosphere (CIRA) serves as a nexus for multi-disciplinary cooperation between NOAA research scientists and Colorado State University research staff, faculty, and students, aligning NOAA-identified research theme areas with long-standing academic strengths of the University.

Our mission is: to foster additional collaboration with national and international agencies who are developing related capabilities; to affect the fundamental research conducted at the University towards NOAA’s operational needs; and to communicate our research and its practical implications to the scientific community and the public.

To this end, we are dedicated to: providing high-quality training to ensure operational user proficiency; conducting outreach programs to K-12 education and the general public to promote environmental literacy; and to quantifying and communicating the significant positive societal impacts of NOAA research on our everyday lives.

Our Technology

With NOAA and CSU support CIRA has operated a Geostationary Operational Environmental Satellite (GOES) Earth Station since 1980. Today our collection capability handles multiple simultaneous GOES transmissions, NOAA polar data, Himawari-8 and European MSG. CIRA also plays an important role in each new GOES satellite as one of the primary test sites for initial transmissions and sensor verification.

CIRA operates a high-technology infrastructure to support research in our major theme areas. The infrastructure contains over 300 workstations/servers, a satellite Earth Station with an online archive, several high-performance modelling clusters, and a high-speed network. With its expertise in data fusion, CIRA is developing systems and tools that will simplify the acquisition and manipulation of satellite and model data for scientific research.